createdAt,value
2019-03-12T00:00:24.399Z,2.10
2019-03-12T00:02:53.813Z,1.90
2019-03-12T00:05:23.271Z,1.90
2019-03-12T00:07:52.713Z,1.80
2019-03-12T00:10:22.156Z,1.80
2019-03-12T00:12:51.554Z,1.70
2019-03-12T00:15:21.027Z,1.60
2019-03-12T00:17:50.458Z,1.50
2019-03-12T00:20:19.995Z,1.40
2019-03-12T00:22:49.450Z,1.30
2019-03-12T00:25:18.903Z,1.30
2019-03-12T00:27:48.317Z,1.20
2019-03-12T00:30:18.706Z,1.10
2019-03-12T00:32:48.138Z,1.00
2019-03-12T00:35:17.553Z,1.10
2019-03-12T00:37:46.994Z,1.10
2019-03-12T00:40:16.413Z,1.10
2019-03-12T00:42:45.830Z,1.00
2019-03-12T00:45:15.316Z,0.90
2019-03-12T00:47:44.704Z,0.70
2019-03-12T00:50:14.093Z,0.80
2019-03-12T00:52:43.506Z,0.80
2019-03-12T00:55:13.044Z,0.80
2019-03-12T00:57:42.472Z,0.70
2019-03-12T01:00:13.964Z,0.70
2019-03-12T01:02:43.417Z,0.60
2019-03-12T01:05:12.940Z,0.70
2019-03-12T01:07:42.654Z,0.70
2019-03-12T01:10:13.412Z,0.60
2019-03-12T01:12:42.900Z,0.60
2019-03-12T01:15:13.318Z,0.40
2019-03-12T01:17:42.857Z,0.50
2019-03-12T01:20:12.952Z,0.30
2019-03-12T01:22:42.416Z,0.20
2019-03-12T01:25:11.915Z,0.20
2019-03-12T01:27:41.378Z,0.10
2019-03-12T01:30:13.012Z,0.10
2019-03-12T01:32:42.433Z,0.10
2019-03-12T01:35:12.013Z,0.00
2019-03-12T01:37:41.466Z,0.00
2019-03-12T01:40:11.985Z,0.00
2019-03-12T01:42:41.392Z,-0.10
2019-03-12T01:45:13.286Z,-0.10
2019-03-12T01:47:42.710Z,-0.10
2019-03-12T01:50:12.295Z,-0.10
2019-03-12T01:52:41.744Z,-0.20
2019-03-12T01:55:11.671Z,-0.20
2019-03-12T01:57:41.118Z,-0.30
2019-03-12T02:00:12.751Z,-0.10
2019-03-12T02:02:42.206Z,-0.20
2019-03-12T02:05:11.708Z,-0.40
2019-03-12T02:07:41.147Z,-0.40
2019-03-12T02:10:11.453Z,-0.40
2019-03-12T02:12:40.954Z,-0.60
2019-03-12T02:15:11.381Z,-0.60
2019-03-12T02:17:40.813Z,-0.80
2019-03-12T02:20:14.957Z,-0.90
2019-03-12T02:22:44.388Z,-0.70
2019-03-12T02:25:15.841Z,-0.70
2019-03-12T02:27:45.238Z,-0.60
2019-03-12T02:30:16.661Z,-0.50
2019-03-12T02:32:46.183Z,-0.60
2019-03-12T02:35:15.915Z,-0.70
2019-03-12T02:37:45.346Z,-0.70
2019-03-12T02:40:15.546Z,-0.70
2019-03-12T02:42:44.985Z,-0.60
2019-03-12T02:45:14.514Z,-0.70
2019-03-12T02:47:44.017Z,-0.70
2019-03-12T02:50:13.894Z,-0.80
2019-03-12T02:52:43.589Z,-0.70
2019-03-12T02:55:13.062Z,-0.80
2019-03-12T02:57:42.486Z,-0.80
2019-03-12T03:00:16.494Z,-1.00
2019-03-12T03:02:45.835Z,-1.00
2019-03-12T03:05:15.280Z,-1.10
2019-03-12T03:07:55.515Z,-1.00
2019-03-12T03:10:24.926Z,-1.00
2019-03-12T03:12:54.374Z,-1.00
2019-03-12T03:15:25.974Z,-0.90
2019-03-12T03:17:55.465Z,-1.00
2019-03-12T03:20:25.087Z,-1.00
2019-03-12T03:22:54.506Z,-0.90
2019-03-12T03:25:23.942Z,-0.80
2019-03-12T03:27:53.376Z,-0.80
2019-03-12T03:30:23.927Z,-0.80
2019-03-12T03:32:53.621Z,-0.80
2019-03-12T03:35:23.066Z,-0.70
2019-03-12T03:37:52.485Z,-0.40
2019-03-12T03:40:22.169Z,-0.30
2019-03-12T03:42:51.983Z,-0.20
2019-03-12T03:45:21.403Z,-0.10
2019-03-12T03:47:50.811Z,-0.10
2019-03-12T03:50:20.250Z,0.00
2019-03-12T03:52:49.685Z,0.00
2019-03-12T03:55:19.161Z,0.00
2019-03-12T03:57:48.788Z,0.10
2019-03-12T04:00:20.468Z,0.10
2019-03-12T04:02:50.057Z,0.10
2019-03-12T04:05:19.680Z,0.10
2019-03-12T04:07:49.115Z,0.10
2019-03-12T04:10:18.532Z,0.10
2019-03-12T04:12:47.965Z,0.00
2019-03-12T04:15:17.807Z,0.00
2019-03-12T04:17:47.606Z,0.00
2019-03-12T04:20:17.103Z,-0.10
2019-03-12T04:22:46.682Z,-0.20
2019-03-12T04:25:16.080Z,-0.10
2019-03-12T04:27:45.496Z,-0.10
2019-03-12T04:30:15.110Z,-0.10
2019-03-12T04:32:44.530Z,-0.10
2019-03-12T04:35:15.666Z,-0.10
2019-03-12T04:37:45.111Z,-0.10
2019-03-12T04:40:14.812Z,-0.20
2019-03-12T04:42:44.250Z,-0.20
2019-03-12T04:45:15.044Z,-0.30
2019-03-12T04:47:44.505Z,-0.30
2019-03-12T04:50:14.613Z,-0.30
2019-03-12T04:52:44.044Z,-0.30
2019-03-12T04:55:13.720Z,-0.40
2019-03-12T04:57:43.142Z,-0.40
2019-03-12T05:00:15.177Z,-0.40
2019-03-12T05:02:44.612Z,-0.50
2019-03-12T05:05:14.348Z,-0.50
2019-03-12T05:07:43.763Z,-0.30
2019-03-12T05:10:13.988Z,-0.40
2019-03-12T05:12:43.380Z,-0.30
2019-03-12T05:15:13.429Z,-0.30
2019-03-12T05:17:43.281Z,-0.30
2019-03-12T05:20:13.709Z,-0.20
2019-03-12T05:22:43.244Z,-0.20
2019-03-12T05:25:13.156Z,-0.10
2019-03-12T05:27:42.558Z,0.00
2019-03-12T05:30:14.910Z,0.10
2019-03-12T05:32:44.312Z,0.20
2019-03-12T05:35:13.835Z,0.20
2019-03-12T05:37:43.885Z,0.30
2019-03-12T05:40:14.005Z,0.20
2019-03-12T05:42:43.464Z,0.30
2019-03-12T05:45:13.101Z,0.20
2019-03-12T05:47:42.539Z,0.30
2019-03-12T05:50:13.612Z,0.20
2019-03-12T05:52:43.078Z,0.20
2019-03-12T05:55:12.858Z,0.20
2019-03-12T05:57:42.303Z,0.30
2019-03-12T06:00:14.003Z,0.40
2019-03-12T06:02:43.498Z,0.60
2019-03-12T06:05:12.904Z,0.50
2019-03-12T06:07:42.246Z,0.60
2019-03-12T06:10:12.008Z,0.60
2019-03-12T06:12:41.407Z,0.50
2019-03-12T06:15:10.908Z,0.50
2019-03-12T06:17:40.416Z,0.50
2019-03-12T06:20:10.244Z,0.40
2019-03-12T06:22:39.733Z,0.40
2019-03-12T06:25:09.394Z,0.50
2019-03-12T06:27:38.816Z,0.60
2019-03-12T06:30:09.740Z,0.70
2019-03-12T06:32:58.231Z,0.80
2019-03-12T06:35:38.578Z,0.70
2019-03-12T06:38:17.833Z,0.80
2019-03-12T06:41:01.414Z,1.10
2019-03-12T06:44:04.966Z,1.30
2019-03-12T06:46:46.441Z,1.10
2019-03-12T06:49:34.266Z,1.10
2019-03-12T06:52:22.974Z,1.20
2019-03-12T06:55:17.545Z,1.10
2019-03-12T06:58:18.308Z,1.20
2019-03-12T07:01:08.110Z,1.20
2019-03-12T07:03:46.766Z,1.40
2019-03-12T07:06:40.993Z,1.60
2019-03-12T07:09:25.029Z,1.60
2019-03-12T07:11:58.924Z,1.80
2019-03-12T07:14:50.298Z,2.10
2019-03-12T07:17:37.524Z,2.50
2019-03-12T07:20:26.050Z,2.90
2019-03-12T07:23:26.693Z,3.30
2019-03-12T07:26:30.564Z,3.00
2019-03-12T07:29:17.462Z,2.60
2019-03-12T07:31:56.898Z,2.90
2019-03-12T07:34:36.994Z,3.10
2019-03-12T07:37:18.715Z,3.20
2019-03-12T07:40:03.175Z,3.40
2019-03-12T07:42:47.737Z,4.00
2019-03-12T07:48:25.687Z,6.00
2019-03-12T07:56:59.900Z,6.70
2019-03-12T07:59:57.689Z,5.80
2019-03-12T08:02:39.155Z,5.60
2019-03-12T08:05:28.058Z,5.10
2019-03-12T08:08:05.903Z,4.90
2019-03-12T08:11:09.431Z,5.00
2019-03-12T08:13:57.843Z,4.90
2019-03-12T08:16:52.101Z,5.60
2019-03-12T08:19:55.937Z,6.10
2019-03-12T08:22:37.457Z,5.90
2019-03-12T08:25:44.881Z,6.10
2019-03-12T08:28:36.102Z,6.10
2019-03-12T08:31:22.437Z,6.30
2019-03-12T08:34:01.791Z,6.10
2019-03-12T08:39:44.287Z,6.40
2019-03-12T08:42:29.130Z,6.20
2019-03-12T08:45:17.520Z,5.40
2019-03-12T08:48:15.021Z,5.50
2019-03-12T08:51:06.415Z,6.60
2019-03-12T08:53:58.631Z,5.80
2019-03-12T08:56:45.073Z,5.20
2019-03-12T08:59:39.329Z,4.60
2019-03-12T09:02:30.808Z,4.80
2019-03-12T09:05:19.463Z,4.20
2019-03-12T09:07:56.107Z,4.00
2019-03-12T09:10:41.802Z,3.60
2019-03-12T09:13:28.605Z,3.50
2019-03-12T09:16:23.109Z,3.00
2019-03-12T09:19:26.791Z,3.10
2019-03-12T09:22:17.906Z,3.40
2019-03-12T09:25:07.333Z,3.50
2019-03-12T09:28:16.094Z,3.50
2019-03-12T09:31:07.734Z,3.40
2019-03-12T09:34:11.218Z,3.40
2019-03-12T09:36:58.403Z,3.30
2019-03-12T09:39:53.158Z,3.30
2019-03-12T09:42:40.633Z,3.30
2019-03-12T09:45:28.012Z,3.10
2019-03-12T09:48:22.418Z,4.10
2019-03-12T09:53:52.341Z,5.90
2019-03-12T09:56:46.234Z,6.20
2019-03-12T09:59:34.593Z,5.20
2019-03-12T10:02:28.974Z,4.80
2019-03-12T10:05:23.672Z,4.10
2019-03-12T10:08:21.445Z,3.90
2019-03-12T10:11:06.459Z,3.60
2019-03-12T10:14:07.008Z,3.60
2019-03-12T10:17:03.327Z,3.60
2019-03-12T10:19:51.693Z,3.70
2019-03-12T10:22:38.746Z,3.70
2019-03-12T10:25:43.054Z,3.70
2019-03-12T10:28:21.260Z,3.40
2019-03-12T10:31:18.594Z,4.90
2019-03-12T10:45:38.949Z,9.50
2019-03-12T10:48:08.437Z,6.80
2019-03-12T10:50:38.071Z,6.50
2019-03-12T10:53:07.621Z,5.60
2019-03-12T10:55:37.080Z,5.50
2019-03-12T10:58:06.798Z,5.60
2019-03-12T11:00:36.683Z,5.30
2019-03-12T11:03:06.153Z,5.70
2019-03-12T11:05:45.248Z,5.60
2019-03-12T11:08:07.068Z,5.40
2019-03-12T11:10:36.722Z,5.50
2019-03-12T11:13:06.220Z,6.70
2019-03-12T11:15:35.943Z,6.40
2019-03-12T11:18:05.374Z,7.10
2019-03-12T11:23:03.715Z,6.50
2019-03-12T11:25:33.101Z,6.60
2019-03-12T11:28:02.850Z,5.70
2019-03-12T11:30:32.339Z,5.20
2019-03-12T11:33:01.764Z,6.30
2019-03-12T11:38:02.374Z,7.90
2019-03-12T11:40:32.912Z,6.80
2019-03-12T11:43:02.678Z,7.30
2019-03-12T11:45:36.667Z,7.30
2019-03-12T11:48:03.242Z,6.80
2019-03-12T11:53:01.639Z,7.00
2019-03-12T12:00:37.099Z,10.10
2019-03-12T12:03:06.495Z,9.50
2019-03-12T12:05:36.279Z,8.00
2019-03-12T12:10:34.598Z,9.80
2019-03-12T12:18:02.002Z,12.10
2019-03-12T12:23:00.574Z,13.00
2019-03-12T12:25:29.999Z,11.00
2019-03-12T12:30:28.612Z,13.30
2019-03-12T12:35:26.939Z,13.50
2019-03-12T12:37:56.443Z,11.80
2019-03-12T12:40:26.223Z,9.70
2019-03-12T12:42:55.641Z,12.10
2019-03-12T12:47:54.232Z,13.50
2019-03-12T12:55:21.574Z,16.50
2019-03-12T12:57:51.008Z,16.70
2019-03-12T13:02:49.434Z,15.50
2019-03-12T13:05:18.860Z,12.90
2019-03-12T13:07:48.372Z,13.50
2019-03-12T13:12:55.870Z,13.40
2019-03-12T13:15:25.391Z,8.80
2019-03-12T13:17:55.020Z,9.80
2019-03-12T13:20:24.485Z,12.00
2019-03-12T13:27:52.066Z,14.40
2019-03-12T13:30:21.700Z,13.70
2019-03-12T13:57:42.094Z,13.70
2019-03-12T14:00:14.973Z,11.80
2019-03-12T14:02:45.216Z,13.00
2019-03-12T14:17:45.997Z,13.10
2019-03-12T14:28:00.301Z,14.60
2019-03-12T14:37:56.609Z,14.10
2019-03-12T14:40:26.126Z,11.00
2019-03-12T14:42:55.489Z,8.70
2019-03-12T14:45:26.959Z,7.50
2019-03-12T14:47:56.565Z,6.90
2019-03-12T14:50:26.289Z,7.10
2019-03-12T14:53:02.554Z,6.70
2019-03-12T14:55:32.003Z,6.10
2019-03-12T14:58:01.443Z,5.60
2019-03-12T15:00:30.911Z,5.50
2019-03-12T15:03:00.471Z,5.70
2019-03-12T15:05:30.040Z,5.60
2019-03-12T15:07:59.785Z,5.70
2019-03-12T15:10:29.181Z,5.70
2019-03-12T15:12:58.629Z,6.40
2019-03-12T15:15:28.179Z,6.40
2019-03-12T15:17:57.541Z,6.60
2019-03-12T15:20:27.000Z,6.60
2019-03-12T15:22:56.389Z,6.00
2019-03-12T15:25:25.904Z,5.80
2019-03-12T15:27:55.326Z,5.50
2019-03-12T15:30:24.813Z,5.30
2019-03-12T15:32:54.259Z,5.20
2019-03-12T15:35:23.771Z,5.10
2019-03-12T15:37:53.612Z,5.20
2019-03-12T15:40:23.056Z,5.00
2019-03-12T15:42:52.513Z,5.00
2019-03-12T15:45:22.102Z,4.90
2019-03-12T15:47:51.533Z,4.90
2019-03-12T15:50:21.210Z,4.70
2019-03-12T15:52:50.803Z,4.70
2019-03-12T15:55:20.190Z,4.50
2019-03-12T15:57:49.640Z,4.50
2019-03-12T16:00:19.041Z,4.60
2019-03-12T16:02:48.621Z,4.50
2019-03-12T16:05:18.038Z,4.40
2019-03-12T16:07:47.459Z,4.40
2019-03-12T16:10:19.246Z,4.50
2019-03-12T16:12:47.949Z,4.50
2019-03-12T16:15:17.319Z,4.40
2019-03-12T16:17:46.740Z,4.40
2019-03-12T16:20:16.257Z,4.30
2019-03-12T16:22:45.642Z,4.20
2019-03-12T16:25:15.035Z,4.20
2019-03-12T16:27:44.445Z,4.00
2019-03-12T16:30:13.870Z,3.90
2019-03-12T16:32:43.284Z,3.90
2019-03-12T16:35:12.717Z,3.80
2019-03-12T16:37:42.150Z,3.80
2019-03-12T16:40:11.944Z,3.70
2019-03-12T16:42:41.443Z,3.70
2019-03-12T16:45:10.969Z,3.70
2019-03-12T16:47:40.551Z,3.60
2019-03-12T16:50:10.020Z,3.60
2019-03-12T16:52:39.476Z,3.50
2019-03-12T16:55:09.009Z,3.40
2019-03-12T16:57:38.446Z,3.40
2019-03-12T17:00:10.514Z,3.40
2019-03-12T17:02:39.970Z,3.40
2019-03-12T17:05:09.685Z,3.40
2019-03-12T17:07:39.257Z,3.50
2019-03-12T17:10:09.499Z,3.50
2019-03-12T17:12:38.957Z,3.50
2019-03-12T17:15:10.338Z,3.50
2019-03-12T17:17:39.809Z,3.60
2019-03-12T17:20:10.875Z,3.60
2019-03-12T17:22:40.313Z,3.60
2019-03-12T17:25:10.406Z,3.50
2019-03-12T17:27:40.739Z,3.50
2019-03-12T17:30:13.373Z,3.50
2019-03-12T17:32:43.051Z,3.40
2019-03-12T17:35:13.803Z,3.30
2019-03-12T17:37:43.444Z,3.30
2019-03-12T17:40:15.623Z,3.30
2019-03-12T17:42:45.159Z,3.20
2019-03-12T17:45:14.825Z,3.10
2019-03-12T17:47:44.237Z,3.00
2019-03-12T17:50:13.941Z,3.00
2019-03-12T17:52:43.382Z,2.90
2019-03-12T17:55:13.120Z,2.90
2019-03-12T17:57:42.587Z,2.80
2019-03-12T18:00:15.669Z,2.70
2019-03-12T18:02:45.082Z,2.70
2019-03-12T18:05:14.598Z,2.50
2019-03-12T18:07:44.151Z,2.50
2019-03-12T18:10:14.367Z,2.40
2019-03-12T18:12:43.811Z,2.40
2019-03-12T18:15:15.055Z,2.40
2019-03-12T18:17:44.827Z,2.30
2019-03-12T18:20:14.892Z,2.20
2019-03-12T18:22:44.349Z,2.00
2019-03-12T18:25:17.223Z,2.10
2019-03-12T18:27:46.671Z,2.10
2019-03-12T18:30:17.015Z,2.10
2019-03-12T18:32:46.627Z,2.00
2019-03-12T18:35:17.600Z,2.00
2019-03-12T18:37:47.430Z,1.90
2019-03-12T18:40:18.464Z,2.00
2019-03-12T18:42:48.071Z,2.00
2019-03-12T18:45:19.847Z,1.90
2019-03-12T18:47:49.288Z,2.00
2019-03-12T18:50:18.814Z,2.10
2019-03-12T18:52:48.399Z,2.00
2019-03-12T18:55:44.076Z,1.90
2019-03-12T18:58:13.454Z,1.80
2019-03-12T19:00:43.850Z,1.60
2019-03-12T19:03:13.763Z,1.60
2019-03-12T19:05:43.194Z,1.40
2019-03-12T19:08:12.773Z,1.30
2019-03-12T19:10:42.261Z,1.30
2019-03-12T19:13:11.858Z,1.30
2019-03-12T19:15:41.724Z,1.40
2019-03-12T19:18:11.155Z,1.30
2019-03-12T19:20:40.664Z,1.20
2019-03-12T19:23:10.158Z,1.10
2019-03-12T19:25:39.656Z,0.90
2019-03-12T19:28:09.273Z,0.80
2019-03-12T19:30:38.845Z,0.60
2019-03-12T19:33:10.487Z,0.50
2019-03-12T19:35:40.394Z,0.50
2019-03-12T19:38:10.494Z,0.50
2019-03-12T19:40:41.495Z,0.30
2019-03-12T19:43:11.306Z,0.20
2019-03-12T19:45:41.322Z,0.10
2019-03-12T19:48:10.828Z,0.00
2019-03-12T19:50:40.455Z,-0.10
2019-03-12T19:53:09.900Z,-0.20
2019-03-12T19:55:42.537Z,-0.30
2019-03-12T19:58:12.080Z,-0.30
2019-03-12T20:00:41.613Z,-0.30
2019-03-12T20:03:15.139Z,-0.40
2019-03-12T20:05:43.471Z,-0.50
2019-03-12T20:08:12.937Z,-0.60
2019-03-12T20:11:24.962Z,-0.70
2019-03-12T20:14:30.223Z,-0.70
2019-03-12T20:18:02.168Z,-0.70
2019-03-12T20:21:18.765Z,-0.80
2019-03-12T20:24:37.396Z,-0.80
2019-03-12T20:27:54.066Z,-0.90
2019-03-12T20:30:49.468Z,-1.00
2019-03-12T20:34:08.971Z,-1.10
2019-03-12T20:37:22.034Z,-1.20
2019-03-12T20:40:31.589Z,-1.30
2019-03-12T20:43:38.135Z,-1.40
2019-03-12T20:46:53.882Z,-1.40
2019-03-12T20:49:52.574Z,-1.50
2019-03-12T20:53:06.165Z,-1.40
2019-03-12T20:56:47.088Z,-1.40
2019-03-12T20:59:52.421Z,-1.40
2019-03-12T21:03:13.433Z,-1.50
2019-03-12T21:06:21.669Z,-1.50
2019-03-12T21:09:40.314Z,-1.40
2019-03-12T21:12:51.526Z,-1.40
2019-03-12T21:15:57.116Z,-1.40
2019-03-12T21:19:12.358Z,-1.40
2019-03-12T21:22:06.125Z,-1.50
2019-03-12T21:25:34.389Z,-1.60
2019-03-12T21:28:40.048Z,-1.60
2019-03-12T21:31:09.801Z,-1.70
2019-03-12T21:33:39.223Z,-1.80
2019-03-12T21:36:08.663Z,-1.70
2019-03-12T21:38:38.423Z,-1.70
2019-03-12T21:41:07.899Z,-1.70
2019-03-12T21:43:37.370Z,-1.70
2019-03-12T21:46:07.077Z,-1.70
2019-03-12T21:48:36.517Z,-1.80
2019-03-12T21:51:06.331Z,-1.70
2019-03-12T21:53:35.793Z,-1.80
2019-03-12T21:56:05.517Z,-1.80
2019-03-12T21:58:35.147Z,-1.90
2019-03-12T22:01:04.599Z,-1.90
2019-03-12T22:03:34.024Z,-1.80
2019-03-12T22:06:03.756Z,-1.90
2019-03-12T22:08:33.195Z,-2.00
2019-03-12T22:11:02.666Z,-2.00
2019-03-12T22:13:32.536Z,-1.90
2019-03-12T22:16:01.995Z,-1.90
2019-03-12T22:18:31.428Z,-1.70
2019-03-12T22:21:01.072Z,-1.70
2019-03-12T22:23:35.891Z,-1.80
2019-03-12T22:26:05.367Z,-1.80
2019-03-12T22:28:34.836Z,-1.80
2019-03-12T22:31:04.260Z,-1.80
2019-03-12T22:33:34.079Z,-1.80
2019-03-12T22:36:03.553Z,-1.60
2019-03-12T22:38:33.183Z,-1.50
2019-03-12T22:41:02.633Z,-1.60
2019-03-12T22:43:32.083Z,-1.40
2019-03-12T22:46:01.601Z,-1.50
2019-03-12T22:48:31.208Z,-1.40
2019-03-12T22:51:00.653Z,-1.40
2019-03-12T22:53:30.111Z,-1.50
2019-03-12T22:55:59.814Z,-1.50
2019-03-12T22:58:29.271Z,-1.60
2019-03-12T23:00:58.704Z,-1.60
2019-03-12T23:03:28.655Z,-1.60
2019-03-12T23:05:58.172Z,-1.50
2019-03-12T23:08:28.142Z,-1.60
2019-03-12T23:10:57.633Z,-1.50
2019-03-12T23:13:27.452Z,-1.50
2019-03-12T23:15:56.973Z,-1.50
2019-03-12T23:18:26.554Z,-1.50
2019-03-12T23:20:56.133Z,-1.50
2019-03-12T23:23:25.575Z,-1.50
2019-03-12T23:25:55.084Z,-1.50
2019-03-12T23:28:24.647Z,-1.50
2019-03-12T23:30:54.315Z,-1.50
2019-03-12T23:33:24.361Z,-1.50
2019-03-12T23:35:54.003Z,-1.50
2019-03-12T23:38:23.527Z,-1.60
2019-03-12T23:40:52.963Z,-1.60
2019-03-12T23:43:22.462Z,-1.60
2019-03-12T23:45:52.429Z,-1.60
2019-03-12T23:48:22.345Z,-1.70
2019-03-12T23:50:51.770Z,-1.60
2019-03-12T23:53:21.256Z,-1.60
2019-03-12T23:55:50.935Z,-1.70
2019-03-12T23:58:20.433Z,-1.70
